sensor_id;sensor_type;location;lat;lon;timestamp;P1;durP1;ratioP1;P2;durP2;ratioP2
71610;SDS011;59459;51.172;6.682;2022-07-29T00:00:33;3.30;;;1.37;;
71610;SDS011;59459;51.172;6.682;2022-07-29T00:02:58;3.17;;;1.00;;
71610;SDS011;59459;51.172;6.682;2022-07-29T00:05:24;5.93;;;1.53;;
71610;SDS011;59459;51.172;6.682;2022-07-29T00:07:49;4.03;;;1.00;;
71610;SDS011;59459;51.172;6.682;2022-07-29T00:10:14;5.83;;;1.10;;
71610;SDS011;59459;51.172;6.682;2022-07-29T00:12:40;5.63;;;1.07;;
71610;SDS011;59459;51.172;6.682;2022-07-29T00:15:05;3.27;;;1.00;;
71610;SDS011;59459;51.172;6.682;2022-07-29T00:17:30;5.43;;;1.30;;
71610;SDS011;59459;51.172;6.682;2022-07-29T00:19:56;3.73;;;1.37;;
71610;SDS011;59459;51.172;6.682;2022-07-29T00:22:21;6.67;;;1.50;;
71610;SDS011;59459;51.172;6.682;2022-07-29T00:24:47;4.93;;;1.17;;
71610;SDS011;59459;51.172;6.682;2022-07-29T00:27:12;5.43;;;1.30;;
71610;SDS011;59459;51.172;6.682;2022-07-29T00:29:37;5.47;;;1.30;;
71610;SDS011;59459;51.172;6.682;2022-07-29T00:32:02;5.53;;;1.43;;
71610;SDS011;59459;51.172;6.682;2022-07-29T00:34:28;6.73;;;1.77;;
71610;SDS011;59459;51.172;6.682;2022-07-29T00:37:16;5.72;;;1.42;;
71610;SDS011;59459;51.172;6.682;2022-07-29T00:39:41;3.67;;;1.13;;
71610;SDS011;59459;51.172;6.682;2022-07-29T00:42:06;8.10;;;1.30;;
71610;SDS011;59459;51.172;6.682;2022-07-29T00:44:36;4.93;;;1.00;;
71610;SDS011;59459;51.172;6.682;2022-07-29T00:47:01;3.22;;;1.05;;
71610;SDS011;59459;51.172;6.682;2022-07-29T00:49:27;3.97;;;1.20;;
71610;SDS011;59459;51.172;6.682;2022-07-29T00:51:52;5.63;;;1.17;;
71610;SDS011;59459;51.172;6.682;2022-07-29T00:54:18;3.05;;;1.13;;
71610;SDS011;59459;51.172;6.682;2022-07-29T00:56:43;3.73;;;1.40;;
71610;SDS011;59459;51.172;6.682;2022-07-29T00:59:09;3.70;;;1.50;;
71610;SDS011;59459;51.172;6.682;2022-07-29T01:01:34;4.43;;;1.20;;
71610;SDS011;59459;51.172;6.682;2022-07-29T01:03:59;4.43;;;1.17;;
71610;SDS011;59459;51.172;6.682;2022-07-29T01:06:24;2.37;;;0.97;;
71610;SDS011;59459;51.172;6.682;2022-07-29T01:08:50;9.57;;;1.10;;
71610;SDS011;59459;51.172;6.682;2022-07-29T01:11:15;5.53;;;1.00;;
71610;SDS011;59459;51.172;6.682;2022-07-29T01:13:41;3.47;;;0.90;;
71610;SDS011;59459;51.172;6.682;2022-07-29T01:16:10;4.35;;;0.98;;
71610;SDS011;59459;51.172;6.682;2022-07-29T01:18:38;4.22;;;1.20;;
71610;SDS011;59459;51.172;6.682;2022-07-29T01:21:22;5.90;;;1.40;;
71610;SDS011;59459;51.172;6.682;2022-07-29T01:26:34;3.80;;;1.27;;
71610;SDS011;59459;51.172;6.682;2022-07-29T01:29:05;5.97;;;1.00;;
71610;SDS011;59459;51.172;6.682;2022-07-29T01:31:33;8.13;;;1.38;;
71610;SDS011;59459;51.172;6.682;2022-07-29T01:34:01;11.32;;;1.60;;
71610;SDS011;59459;51.172;6.682;2022-07-29T01:36:30;6.10;;;1.30;;
71610;SDS011;59459;51.172;6.682;2022-07-29T01:39:02;3.97;;;0.97;;
71610;SDS011;59459;51.172;6.682;2022-07-29T01:41:29;3.72;;;1.08;;
71610;SDS011;59459;51.172;6.682;2022-07-29T01:43:57;6.72;;;1.38;;
71610;SDS011;59459;51.172;6.682;2022-07-29T01:46:29;6.68;;;1.70;;
71610;SDS011;59459;51.172;6.682;2022-07-29T01:49:29;3.80;;;1.15;;
71610;SDS011;59459;51.172;6.682;2022-07-29T01:51:49;3.60;;;1.10;;
71610;SDS011;59459;51.172;6.682;2022-07-29T01:54:19;4.78;;;0.95;;
71610;SDS011;59459;51.172;6.682;2022-07-29T01:56:47;6.15;;;1.40;;
71610;SDS011;59459;51.172;6.682;2022-07-29T01:59:14;4.95;;;1.23;;
71610;SDS011;59459;51.172;6.682;2022-07-29T02:01:40;4.82;;;1.40;;
71610;SDS011;59459;51.172;6.682;2022-07-29T02:04:06;6.07;;;1.50;;
71610;SDS011;59459;51.172;6.682;2022-07-29T02:06:33;6.28;;;2.08;;
71610;SDS011;59459;51.172;6.682;2022-07-29T02:08:59;3.65;;;1.15;;
71610;SDS011;59459;51.172;6.682;2022-07-29T02:11:25;4.77;;;1.17;;
71610;SDS011;59459;51.172;6.682;2022-07-29T02:13:50;3.53;;;1.10;;
71610;SDS011;59459;51.172;6.682;2022-07-29T02:16:17;8.38;;;1.48;;
71610;SDS011;59459;51.172;6.682;2022-07-29T02:18:43;7.35;;;1.73;;
71610;SDS011;59459;51.172;6.682;2022-07-29T02:21:10;4.70;;;1.20;;
71610;SDS011;59459;51.172;6.682;2022-07-29T02:23:36;5.15;;;1.55;;
71610;SDS011;59459;51.172;6.682;2022-07-29T02:26:04;5.07;;;1.47;;
71610;SDS011;59459;51.172;6.682;2022-07-29T02:28:29;5.60;;;1.40;;
71610;SDS011;59459;51.172;6.682;2022-07-29T02:30:56;8.73;;;1.90;;
71610;SDS011;59459;51.172;6.682;2022-07-29T02:33:23;6.47;;;1.67;;
71610;SDS011;59459;51.172;6.682;2022-07-29T02:35:48;6.28;;;2.05;;
71610;SDS011;59459;51.172;6.682;2022-07-29T02:38:15;4.43;;;1.38;;
71610;SDS011;59459;51.172;6.682;2022-07-29T02:41:07;5.45;;;1.52;;
71610;SDS011;59459;51.172;6.682;2022-07-29T02:43:33;7.80;;;1.70;;
71610;SDS011;59459;51.172;6.682;2022-07-29T02:46:00;5.97;;;1.27;;
71610;SDS011;59459;51.172;6.682;2022-07-29T02:48:36;6.22;;;2.00;;
71610;SDS011;59459;51.172;6.682;2022-07-29T02:51:12;5.72;;;1.40;;
71610;SDS011;59459;51.172;6.682;2022-07-29T02:53:39;4.33;;;1.00;;
71610;SDS011;59459;51.172;6.682;2022-07-29T02:56:06;4.10;;;1.65;;
71610;SDS011;59459;51.172;6.682;2022-07-29T02:58:40;6.50;;;1.00;;
71610;SDS011;59459;51.172;6.682;2022-07-29T03:01:11;5.55;;;1.40;;
71610;SDS011;59459;51.172;6.682;2022-07-29T03:03:37;3.33;;;0.97;;
71610;SDS011;59459;51.172;6.682;2022-07-29T03:06:03;5.90;;;1.17;;
71610;SDS011;59459;51.172;6.682;2022-07-29T03:08:30;6.57;;;1.02;;
71610;SDS011;59459;51.172;6.682;2022-07-29T03:10:57;3.95;;;1.10;;
71610;SDS011;59459;51.172;6.682;2022-07-29T03:13:22;3.80;;;1.13;;
71610;SDS011;59459;51.172;6.682;2022-07-29T03:15:48;5.65;;;1.20;;
71610;SDS011;59459;51.172;6.682;2022-07-29T03:18:14;8.53;;;1.63;;
71610;SDS011;59459;51.172;6.682;2022-07-29T03:20:39;4.60;;;1.20;;
71610;SDS011;59459;51.172;6.682;2022-07-29T03:23:05;7.70;;;1.80;;
71610;SDS011;59459;51.172;6.682;2022-07-29T03:25:31;5.93;;;1.50;;
71610;SDS011;59459;51.172;6.682;2022-07-29T03:27:56;4.87;;;1.20;;
71610;SDS011;59459;51.172;6.682;2022-07-29T03:30:21;3.67;;;1.33;;
71610;SDS011;59459;51.172;6.682;2022-07-29T03:32:46;5.73;;;1.50;;
71610;SDS011;59459;51.172;6.682;2022-07-29T03:35:12;5.13;;;1.67;;
71610;SDS011;59459;51.172;6.682;2022-07-29T03:37:37;4.60;;;1.60;;
71610;SDS011;59459;51.172;6.682;2022-07-29T03:40:06;4.10;;;1.27;;
71610;SDS011;59459;51.172;6.682;2022-07-29T03:42:32;5.83;;;1.63;;
71610;SDS011;59459;51.172;6.682;2022-07-29T03:44:58;4.40;;;1.90;;
71610;SDS011;59459;51.172;6.682;2022-07-29T03:47:26;4.13;;;1.60;;
71610;SDS011;59459;51.172;6.682;2022-07-29T03:49:53;6.20;;;1.90;;
71610;SDS011;59459;51.172;6.682;2022-07-29T03:52:18;7.03;;;1.70;;
71610;SDS011;59459;51.172;6.682;2022-07-29T03:54:44;5.67;;;1.60;;
71610;SDS011;59459;51.172;6.682;2022-07-29T03:57:12;5.77;;;1.43;;
71610;SDS011;59459;51.172;6.682;2022-07-29T03:59:38;7.88;;;1.50;;
71610;SDS011;59459;51.172;6.682;2022-07-29T04:02:04;5.83;;;1.70;;
71610;SDS011;59459;51.172;6.682;2022-07-29T04:04:32;7.25;;;1.90;;
71610;SDS011;59459;51.172;6.682;2022-07-29T04:06:57;3.83;;;1.33;;
71610;SDS011;59459;51.172;6.682;2022-07-29T04:09:22;4.50;;;1.77;;
71610;SDS011;59459;51.172;6.682;2022-07-29T04:11:47;5.70;;;1.87;;
71610;SDS011;59459;51.172;6.682;2022-07-29T04:14:13;5.80;;;1.88;;
71610;SDS011;59459;51.172;6.682;2022-07-29T04:16:38;7.07;;;1.60;;
71610;SDS011;59459;51.172;6.682;2022-07-29T04:19:04;5.80;;;1.63;;
71610;SDS011;59459;51.172;6.682;2022-07-29T04:21:29;6.17;;;1.50;;
71610;SDS011;59459;51.172;6.682;2022-07-29T04:23:54;6.70;;;1.70;;
71610;SDS011;59459;51.172;6.682;2022-07-29T04:26:19;6.93;;;1.90;;
71610;SDS011;59459;51.172;6.682;2022-07-29T04:28:45;6.93;;;1.97;;
71610;SDS011;59459;51.172;6.682;2022-07-29T04:31:11;8.32;;;1.83;;
71610;SDS011;59459;51.172;6.682;2022-07-29T04:33:37;8.45;;;1.83;;
71610;SDS011;59459;51.172;6.682;2022-07-29T04:36:02;6.87;;;1.97;;
71610;SDS011;59459;51.172;6.682;2022-07-29T04:38:28;7.73;;;1.90;;
71610;SDS011;59459;51.172;6.682;2022-07-29T04:40:53;7.23;;;1.97;;
71610;SDS011;59459;51.172;6.682;2022-07-29T04:43:18;7.67;;;2.33;;
71610;SDS011;59459;51.172;6.682;2022-07-29T04:45:43;6.40;;;2.10;;
71610;SDS011;59459;51.172;6.682;2022-07-29T04:48:08;9.57;;;2.37;;
71610;SDS011;59459;51.172;6.682;2022-07-29T04:50:34;6.10;;;1.97;;
71610;SDS011;59459;51.172;6.682;2022-07-29T04:52:59;8.17;;;2.20;;
71610;SDS011;59459;51.172;6.682;2022-07-29T04:55:24;6.17;;;1.70;;
71610;SDS011;59459;51.172;6.682;2022-07-29T04:57:50;8.57;;;2.17;;
71610;SDS011;59459;51.172;6.682;2022-07-29T05:00:15;7.10;;;2.77;;
71610;SDS011;59459;51.172;6.682;2022-07-29T05:02:40;9.93;;;2.60;;
71610;SDS011;59459;51.172;6.682;2022-07-29T05:05:06;8.17;;;3.37;;
71610;SDS011;59459;51.172;6.682;2022-07-29T05:07:31;9.83;;;3.00;;
71610;SDS011;59459;51.172;6.682;2022-07-29T05:09:56;9.73;;;3.70;;
71610;SDS011;59459;51.172;6.682;2022-07-29T05:12:22;13.23;;;3.50;;
71610;SDS011;59459;51.172;6.682;2022-07-29T05:14:47;11.88;;;3.00;;
71610;SDS011;59459;51.172;6.682;2022-07-29T05:17:13;7.73;;;2.43;;
71610;SDS011;59459;51.172;6.682;2022-07-29T05:19:38;8.17;;;3.03;;
71610;SDS011;59459;51.172;6.682;2022-07-29T05:22:03;6.37;;;2.40;;
71610;SDS011;59459;51.172;6.682;2022-07-29T05:24:28;8.83;;;2.57;;
71610;SDS011;59459;51.172;6.682;2022-07-29T05:26:53;6.17;;;2.37;;
71610;SDS011;59459;51.172;6.682;2022-07-29T05:29:19;8.87;;;2.70;;
71610;SDS011;59459;51.172;6.682;2022-07-29T05:31:44;7.10;;;2.17;;
71610;SDS011;59459;51.172;6.682;2022-07-29T05:34:09;8.97;;;2.53;;
71610;SDS011;59459;51.172;6.682;2022-07-29T05:36:35;7.83;;;2.20;;
71610;SDS011;59459;51.172;6.682;2022-07-29T05:39:00;7.57;;;2.60;;
71610;SDS011;59459;51.172;6.682;2022-07-29T05:41:25;6.40;;;2.20;;
71610;SDS011;59459;51.172;6.682;2022-07-29T05:43:50;8.83;;;2.73;;
71610;SDS011;59459;51.172;6.682;2022-07-29T05:46:15;7.77;;;2.47;;
71610;SDS011;59459;51.172;6.682;2022-07-29T05:48:41;7.57;;;2.33;;
71610;SDS011;59459;51.172;6.682;2022-07-29T05:51:06;13.07;;;2.57;;
71610;SDS011;59459;51.172;6.682;2022-07-29T05:53:31;7.03;;;2.70;;
71610;SDS011;59459;51.172;6.682;2022-07-29T05:55:56;6.77;;;2.97;;
71610;SDS011;59459;51.172;6.682;2022-07-29T05:58:22;6.73;;;2.43;;
71610;SDS011;59459;51.172;6.682;2022-07-29T06:00:47;7.00;;;2.20;;
71610;SDS011;59459;51.172;6.682;2022-07-29T06:03:12;7.03;;;2.60;;
71610;SDS011;59459;51.172;6.682;2022-07-29T06:05:37;7.93;;;2.47;;
71610;SDS011;59459;51.172;6.682;2022-07-29T06:08:03;8.37;;;2.57;;
71610;SDS011;59459;51.172;6.682;2022-07-29T06:10:30;10.48;;;2.50;;
71610;SDS011;59459;51.172;6.682;2022-07-29T06:12:55;5.33;;;2.57;;
71610;SDS011;59459;51.172;6.682;2022-07-29T06:15:21;7.85;;;2.90;;
71610;SDS011;59459;51.172;6.682;2022-07-29T06:17:46;11.37;;;2.50;;
71610;SDS011;59459;51.172;6.682;2022-07-29T06:20:13;6.33;;;2.00;;
71610;SDS011;59459;51.172;6.682;2022-07-29T06:22:38;8.87;;;2.87;;
71610;SDS011;59459;51.172;6.682;2022-07-29T06:25:03;8.93;;;2.30;;
71610;SDS011;59459;51.172;6.682;2022-07-29T06:27:28;6.50;;;2.60;;
71610;SDS011;59459;51.172;6.682;2022-07-29T06:29:54;8.93;;;2.87;;
71610;SDS011;59459;51.172;6.682;2022-07-29T06:32:20;6.78;;;2.28;;
71610;SDS011;59459;51.172;6.682;2022-07-29T06:34:46;8.35;;;3.15;;
71610;SDS011;59459;51.172;6.682;2022-07-29T06:37:11;8.53;;;2.60;;
71610;SDS011;59459;51.172;6.682;2022-07-29T06:39:37;7.50;;;2.43;;
71610;SDS011;59459;51.172;6.682;2022-07-29T06:42:05;7.80;;;2.65;;
71610;SDS011;59459;51.172;6.682;2022-07-29T06:44:31;9.27;;;3.63;;
71610;SDS011;59459;51.172;6.682;2022-07-29T06:46:58;8.35;;;3.17;;
71610;SDS011;59459;51.172;6.682;2022-07-29T06:49:23;10.53;;;3.33;;
71610;SDS011;59459;51.172;6.682;2022-07-29T06:51:50;8.93;;;2.80;;
71610;SDS011;59459;51.172;6.682;2022-07-29T06:54:16;11.10;;;4.17;;
71610;SDS011;59459;51.172;6.682;2022-07-29T06:56:41;6.80;;;2.73;;
71610;SDS011;59459;51.172;6.682;2022-07-29T06:59:08;7.90;;;3.05;;
71610;SDS011;59459;51.172;6.682;2022-07-29T07:01:35;10.70;;;2.85;;
71610;SDS011;59459;51.172;6.682;2022-07-29T07:04:00;7.40;;;2.97;;
71610;SDS011;59459;51.172;6.682;2022-07-29T07:06:25;6.50;;;3.20;;
71610;SDS011;59459;51.172;6.682;2022-07-29T07:08:51;9.40;;;3.10;;
71610;SDS011;59459;51.172;6.682;2022-07-29T07:11:16;10.90;;;3.00;;
71610;SDS011;59459;51.172;6.682;2022-07-29T07:13:41;7.33;;;2.83;;
71610;SDS011;59459;51.172;6.682;2022-07-29T07:16:06;10.60;;;3.13;;
71610;SDS011;59459;51.172;6.682;2022-07-29T07:18:32;7.30;;;3.27;;
71610;SDS011;59459;51.172;6.682;2022-07-29T07:20:57;10.97;;;4.33;;
71610;SDS011;59459;51.172;6.682;2022-07-29T07:23:22;10.65;;;3.70;;
71610;SDS011;59459;51.172;6.682;2022-07-29T07:25:47;10.03;;;2.97;;
71610;SDS011;59459;51.172;6.682;2022-07-29T07:28:13;8.17;;;3.13;;
71610;SDS011;59459;51.172;6.682;2022-07-29T07:30:38;6.70;;;2.73;;
71610;SDS011;59459;51.172;6.682;2022-07-29T07:33:04;7.90;;;3.03;;
71610;SDS011;59459;51.172;6.682;2022-07-29T07:35:29;11.90;;;3.70;;
71610;SDS011;59459;51.172;6.682;2022-07-29T07:37:55;11.67;;;3.93;;
71610;SDS011;59459;51.172;6.682;2022-07-29T07:40:20;11.87;;;4.27;;
71610;SDS011;59459;51.172;6.682;2022-07-29T07:42:45;9.63;;;3.60;;
71610;SDS011;59459;51.172;6.682;2022-07-29T07:45:11;14.13;;;4.00;;
71610;SDS011;59459;51.172;6.682;2022-07-29T07:47:36;12.23;;;4.00;;
71610;SDS011;59459;51.172;6.682;2022-07-29T07:50:02;11.07;;;3.90;;
71610;SDS011;59459;51.172;6.682;2022-07-29T07:52:28;9.50;;;3.88;;
71610;SDS011;59459;51.172;6.682;2022-07-29T07:54:53;8.53;;;3.33;;
71610;SDS011;59459;51.172;6.682;2022-07-29T07:57:18;10.70;;;3.93;;
71610;SDS011;59459;51.172;6.682;2022-07-29T07:59:43;11.00;;;3.83;;
71610;SDS011;59459;51.172;6.682;2022-07-29T08:02:09;9.83;;;3.83;;
71610;SDS011;59459;51.172;6.682;2022-07-29T08:04:34;9.50;;;3.80;;
71610;SDS011;59459;51.172;6.682;2022-07-29T08:07:00;11.48;;;3.40;;
71610;SDS011;59459;51.172;6.682;2022-07-29T08:09:26;10.87;;;4.20;;
71610;SDS011;59459;51.172;6.682;2022-07-29T08:11:52;13.88;;;4.60;;
71610;SDS011;59459;51.172;6.682;2022-07-29T08:14:17;8.27;;;3.37;;
71610;SDS011;59459;51.172;6.682;2022-07-29T08:16:43;12.38;;;4.57;;
71610;SDS011;59459;51.172;6.682;2022-07-29T08:19:08;11.73;;;4.80;;
71610;SDS011;59459;51.172;6.682;2022-07-29T08:21:34;12.33;;;6.23;;
71610;SDS011;59459;51.172;6.682;2022-07-29T08:23:59;17.20;;;9.05;;
71610;SDS011;59459;51.172;6.682;2022-07-29T08:26:43;15.27;;;8.57;;
71610;SDS011;59459;51.172;6.682;2022-07-29T08:35:33;16.23;;;8.93;;
71610;SDS011;59459;51.172;6.682;2022-07-29T08:37:58;16.10;;;9.00;;
71610;SDS011;59459;51.172;6.682;2022-07-29T08:40:24;16.47;;;9.63;;
71610;SDS011;59459;51.172;6.682;2022-07-29T08:42:49;17.65;;;7.28;;
71610;SDS011;59459;51.172;6.682;2022-07-29T08:45:15;13.13;;;5.90;;
71610;SDS011;59459;51.172;6.682;2022-07-29T08:47:40;9.20;;;4.70;;
71610;SDS011;59459;51.172;6.682;2022-07-29T08:50:06;13.03;;;5.20;;
71610;SDS011;59459;51.172;6.682;2022-07-29T08:52:32;11.30;;;5.00;;
71610;SDS011;59459;51.172;6.682;2022-07-29T08:55:00;9.83;;;4.90;;
71610;SDS011;59459;51.172;6.682;2022-07-29T08:57:26;10.57;;;4.80;;
71610;SDS011;59459;51.172;6.682;2022-07-29T08:59:52;8.10;;;3.87;;
71610;SDS011;59459;51.172;6.682;2022-07-29T09:02:20;9.45;;;4.07;;
71610;SDS011;59459;51.172;6.682;2022-07-29T09:04:46;13.20;;;4.57;;
71610;SDS011;59459;51.172;6.682;2022-07-29T09:07:15;11.67;;;4.67;;
71610;SDS011;59459;51.172;6.682;2022-07-29T09:09:41;8.02;;;4.15;;
71610;SDS011;59459;51.172;6.682;2022-07-29T09:12:07;11.68;;;4.10;;
71610;SDS011;59459;51.172;6.682;2022-07-29T09:14:33;8.90;;;3.87;;
71610;SDS011;59459;51.172;6.682;2022-07-29T09:16:58;8.60;;;3.45;;
71610;SDS011;59459;51.172;6.682;2022-07-29T09:19:30;9.40;;;4.23;;
71610;SDS011;59459;51.172;6.682;2022-07-29T09:21:56;11.93;;;4.03;;
71610;SDS011;59459;51.172;6.682;2022-07-29T09:24:26;10.18;;;3.97;;
71610;SDS011;59459;51.172;6.682;2022-07-29T09:26:51;11.15;;;3.90;;
71610;SDS011;59459;51.172;6.682;2022-07-29T09:29:17;7.30;;;3.90;;
71610;SDS011;59459;51.172;6.682;2022-07-29T09:31:43;10.35;;;3.25;;
71610;SDS011;59459;51.172;6.682;2022-07-29T09:34:10;7.55;;;3.78;;
71610;SDS011;59459;51.172;6.682;2022-07-29T09:36:39;7.30;;;3.37;;
71610;SDS011;59459;51.172;6.682;2022-07-29T09:39:04;6.53;;;3.42;;
71610;SDS011;59459;51.172;6.682;2022-07-29T09:41:30;9.20;;;3.43;;
71610;SDS011;59459;51.172;6.682;2022-07-29T09:44:08;11.05;;;3.58;;
71610;SDS011;59459;51.172;6.682;2022-07-29T09:46:33;9.50;;;3.57;;
71610;SDS011;59459;51.172;6.682;2022-07-29T09:49:06;10.35;;;3.72;;
71610;SDS011;59459;51.172;6.682;2022-07-29T09:51:32;11.40;;;4.30;;
71610;SDS011;59459;51.172;6.682;2022-07-29T09:53:57;9.30;;;3.73;;
71610;SDS011;59459;51.172;6.682;2022-07-29T09:56:40;9.30;;;3.40;;
71610;SDS011;59459;51.172;6.682;2022-07-29T09:59:06;9.05;;;3.65;;
71610;SDS011;59459;51.172;6.682;2022-07-29T10:01:31;9.88;;;3.45;;
71610;SDS011;59459;51.172;6.682;2022-07-29T10:03:56;10.23;;;3.37;;
71610;SDS011;59459;51.172;6.682;2022-07-29T10:06:22;9.63;;;3.87;;
71610;SDS011;59459;51.172;6.682;2022-07-29T10:08:47;12.47;;;4.43;;
71610;SDS011;59459;51.172;6.682;2022-07-29T10:11:15;10.70;;;3.80;;
71610;SDS011;59459;51.172;6.682;2022-07-29T10:13:41;9.80;;;3.10;;
71610;SDS011;59459;51.172;6.682;2022-07-29T10:16:06;8.97;;;3.33;;
71610;SDS011;59459;51.172;6.682;2022-07-29T10:18:31;8.25;;;3.20;;
71610;SDS011;59459;51.172;6.682;2022-07-29T10:20:57;8.13;;;3.03;;
71610;SDS011;59459;51.172;6.682;2022-07-29T10:23:23;8.63;;;2.87;;
71610;SDS011;59459;51.172;6.682;2022-07-29T10:25:49;7.82;;;2.65;;
71610;SDS011;59459;51.172;6.682;2022-07-29T10:28:14;9.55;;;2.90;;
71610;SDS011;59459;51.172;6.682;2022-07-29T10:30:39;11.60;;;4.03;;
71610;SDS011;59459;51.172;6.682;2022-07-29T10:38:10;8.98;;;2.90;;
71610;SDS011;59459;51.172;6.682;2022-07-29T10:40:51;7.28;;;3.20;;
71610;SDS011;59459;51.172;6.682;2022-07-29T10:43:40;8.13;;;3.30;;
71610;SDS011;59459;51.172;6.682;2022-07-29T10:46:07;7.53;;;2.70;;
71610;SDS011;59459;51.172;6.682;2022-07-29T10:48:32;7.15;;;2.90;;
71610;SDS011;59459;51.172;6.682;2022-07-29T10:51:01;6.80;;;3.00;;
71610;SDS011;59459;51.172;6.682;2022-07-29T10:53:46;10.25;;;3.30;;
71610;SDS011;59459;51.172;6.682;2022-07-29T10:56:27;8.67;;;3.23;;
71610;SDS011;59459;51.172;6.682;2022-07-29T11:01:37;10.05;;;2.53;;
71610;SDS011;59459;51.172;6.682;2022-07-29T11:04:02;11.13;;;2.80;;
71610;SDS011;59459;51.172;6.682;2022-07-29T11:07:00;7.97;;;2.72;;
71610;SDS011;59459;51.172;6.682;2022-07-29T11:09:14;6.47;;;2.70;;
71610;SDS011;59459;51.172;6.682;2022-07-29T11:11:40;9.47;;;2.53;;
71610;SDS011;59459;51.172;6.682;2022-07-29T11:14:05;9.32;;;3.08;;
71610;SDS011;59459;51.172;6.682;2022-07-29T11:16:57;7.47;;;2.53;;
71610;SDS011;59459;51.172;6.682;2022-07-29T11:21:43;8.37;;;2.50;;
71610;SDS011;59459;51.172;6.682;2022-07-29T11:24:12;8.80;;;3.17;;
71610;SDS011;59459;51.172;6.682;2022-07-29T11:26:38;7.80;;;2.83;;
71610;SDS011;59459;51.172;6.682;2022-07-29T11:29:16;9.63;;;3.80;;
71610;SDS011;59459;51.172;6.682;2022-07-29T11:31:46;7.47;;;4.13;;
71610;SDS011;59459;51.172;6.682;2022-07-29T11:34:23;10.48;;;4.82;;
71610;SDS011;59459;51.172;6.682;2022-07-29T11:39:47;10.27;;;5.03;;
71610;SDS011;59459;51.172;6.682;2022-07-29T11:47:24;9.95;;;4.82;;
71610;SDS011;59459;51.172;6.682;2022-07-29T11:49:52;11.07;;;4.85;;
71610;SDS011;59459;51.172;6.682;2022-07-29T11:52:18;7.85;;;4.20;;
71610;SDS011;59459;51.172;6.682;2022-07-29T11:54:44;9.97;;;4.70;;
71610;SDS011;59459;51.172;6.682;2022-07-29T11:57:12;9.00;;;4.40;;
71610;SDS011;59459;51.172;6.682;2022-07-29T11:59:41;9.38;;;4.32;;
71610;SDS011;59459;51.172;6.682;2022-07-29T12:02:06;9.75;;;4.72;;
71610;SDS011;59459;51.172;6.682;2022-07-29T12:04:31;11.20;;;4.50;;
71610;SDS011;59459;51.172;6.682;2022-07-29T12:06:57;9.57;;;4.50;;
71610;SDS011;59459;51.172;6.682;2022-07-29T12:09:22;9.97;;;4.53;;
71610;SDS011;59459;51.172;6.682;2022-07-29T12:11:48;12.57;;;4.95;;
71610;SDS011;59459;51.172;6.682;2022-07-29T12:14:27;9.03;;;3.73;;
71610;SDS011;59459;51.172;6.682;2022-07-29T12:16:52;9.77;;;4.05;;
71610;SDS011;59459;51.172;6.682;2022-07-29T12:19:17;8.80;;;4.13;;
71610;SDS011;59459;51.172;6.682;2022-07-29T12:21:44;16.27;;;5.50;;
71610;SDS011;59459;51.172;6.682;2022-07-29T12:24:09;10.45;;;4.00;;
71610;SDS011;59459;51.172;6.682;2022-07-29T12:26:34;10.90;;;4.57;;
71610;SDS011;59459;51.172;6.682;2022-07-29T12:28:59;10.43;;;4.10;;
71610;SDS011;59459;51.172;6.682;2022-07-29T12:31:25;10.27;;;4.50;;
71610;SDS011;59459;51.172;6.682;2022-07-29T12:33:53;7.40;;;4.03;;
71610;SDS011;59459;51.172;6.682;2022-07-29T12:36:18;8.27;;;4.38;;
71610;SDS011;59459;51.172;6.682;2022-07-29T12:38:46;9.37;;;4.20;;
71610;SDS011;59459;51.172;6.682;2022-07-29T12:41:12;9.15;;;4.85;;
71610;SDS011;59459;51.172;6.682;2022-07-29T12:43:37;8.03;;;3.77;;
71610;SDS011;59459;51.172;6.682;2022-07-29T12:46:13;9.45;;;4.15;;
71610;SDS011;59459;51.172;6.682;2022-07-29T12:48:39;11.20;;;4.35;;
71610;SDS011;59459;51.172;6.682;2022-07-29T12:51:05;9.93;;;4.33;;
71610;SDS011;59459;51.172;6.682;2022-07-29T12:53:31;11.02;;;4.50;;
71610;SDS011;59459;51.172;6.682;2022-07-29T12:55:57;10.98;;;4.72;;
71610;SDS011;59459;51.172;6.682;2022-07-29T13:01:00;10.38;;;4.25;;
71610;SDS011;59459;51.172;6.682;2022-07-29T13:03:25;11.02;;;4.35;;
71610;SDS011;59459;51.172;6.682;2022-07-29T13:05:50;9.80;;;4.17;;
71610;SDS011;59459;51.172;6.682;2022-07-29T13:08:16;13.53;;;4.10;;
71610;SDS011;59459;51.172;6.682;2022-07-29T13:10:43;10.32;;;4.15;;
71610;SDS011;59459;51.172;6.682;2022-07-29T13:15:35;8.70;;;4.10;;
71610;SDS011;59459;51.172;6.682;2022-07-29T13:18:00;8.15;;;3.40;;
71610;SDS011;59459;51.172;6.682;2022-07-29T13:20:26;7.20;;;3.93;;
71610;SDS011;59459;51.172;6.682;2022-07-29T13:22:55;9.13;;;4.07;;
71610;SDS011;59459;51.172;6.682;2022-07-29T13:25:25;9.52;;;3.42;;
71610;SDS011;59459;51.172;6.682;2022-07-29T13:27:50;7.45;;;3.58;;
71610;SDS011;59459;51.172;6.682;2022-07-29T13:30:15;8.20;;;4.27;;
71610;SDS011;59459;51.172;6.682;2022-07-29T13:32:41;8.50;;;3.67;;
71610;SDS011;59459;51.172;6.682;2022-07-29T13:35:07;6.90;;;3.53;;
71610;SDS011;59459;51.172;6.682;2022-07-29T13:37:33;7.95;;;2.53;;
71610;SDS011;59459;51.172;6.682;2022-07-29T13:39:59;7.90;;;3.20;;
71610;SDS011;59459;51.172;6.682;2022-07-29T13:42:25;9.57;;;3.13;;
71610;SDS011;59459;51.172;6.682;2022-07-29T13:44:51;6.53;;;3.38;;
71610;SDS011;59459;51.172;6.682;2022-07-29T13:47:19;11.93;;;4.00;;
71610;SDS011;59459;51.172;6.682;2022-07-29T13:49:45;7.95;;;3.20;;
71610;SDS011;59459;51.172;6.682;2022-07-29T13:52:10;6.60;;;3.07;;
71610;SDS011;59459;51.172;6.682;2022-07-29T13:54:36;6.97;;;3.47;;
71610;SDS011;59459;51.172;6.682;2022-07-29T13:57:02;9.13;;;3.42;;
71610;SDS011;59459;51.172;6.682;2022-07-29T13:59:28;11.10;;;3.33;;
71610;SDS011;59459;51.172;6.682;2022-07-29T14:01:53;9.03;;;3.20;;
71610;SDS011;59459;51.172;6.682;2022-07-29T14:04:18;8.30;;;2.97;;
71610;SDS011;59459;51.172;6.682;2022-07-29T14:06:43;9.73;;;3.80;;
71610;SDS011;59459;51.172;6.682;2022-07-29T14:09:08;9.17;;;3.53;;
71610;SDS011;59459;51.172;6.682;2022-07-29T14:11:34;6.40;;;2.90;;
71610;SDS011;59459;51.172;6.682;2022-07-29T14:14:00;9.30;;;2.93;;
71610;SDS011;59459;51.172;6.682;2022-07-29T14:16:25;7.85;;;2.90;;
71610;SDS011;59459;51.172;6.682;2022-07-29T14:18:50;7.77;;;2.97;;
71610;SDS011;59459;51.172;6.682;2022-07-29T14:21:15;6.83;;;3.03;;
71610;SDS011;59459;51.172;6.682;2022-07-29T14:23:41;6.63;;;2.80;;
71610;SDS011;59459;51.172;6.682;2022-07-29T14:26:06;7.20;;;2.90;;
71610;SDS011;59459;51.172;6.682;2022-07-29T14:28:31;9.17;;;2.50;;
71610;SDS011;59459;51.172;6.682;2022-07-29T14:30:57;6.47;;;2.73;;
71610;SDS011;59459;51.172;6.682;2022-07-29T14:33:22;4.63;;;1.93;;
71610;SDS011;59459;51.172;6.682;2022-07-29T14:35:47;6.33;;;2.27;;
71610;SDS011;59459;51.172;6.682;2022-07-29T14:38:12;7.67;;;2.73;;
71610;SDS011;59459;51.172;6.682;2022-07-29T14:40:38;4.97;;;2.28;;
71610;SDS011;59459;51.172;6.682;2022-07-29T14:43:03;7.23;;;2.40;;
71610;SDS011;59459;51.172;6.682;2022-07-29T14:45:29;5.37;;;1.80;;
71610;SDS011;59459;51.172;6.682;2022-07-29T14:47:54;7.87;;;2.17;;
71610;SDS011;59459;51.172;6.682;2022-07-29T14:50:19;4.87;;;2.10;;
71610;SDS011;59459;51.172;6.682;2022-07-29T14:52:44;5.87;;;1.90;;
71610;SDS011;59459;51.172;6.682;2022-07-29T14:55:10;6.07;;;2.00;;
71610;SDS011;59459;51.172;6.682;2022-07-29T14:57:35;6.07;;;2.07;;
71610;SDS011;59459;51.172;6.682;2022-07-29T15:00:00;5.57;;;2.07;;
71610;SDS011;59459;51.172;6.682;2022-07-29T15:02:26;5.70;;;2.03;;
71610;SDS011;59459;51.172;6.682;2022-07-29T15:04:51;3.73;;;1.50;;
71610;SDS011;59459;51.172;6.682;2022-07-29T15:07:16;4.20;;;1.67;;
71610;SDS011;59459;51.172;6.682;2022-07-29T15:09:42;4.33;;;1.87;;
71610;SDS011;59459;51.172;6.682;2022-07-29T15:12:07;5.23;;;2.03;;
71610;SDS011;59459;51.172;6.682;2022-07-29T15:14:33;6.17;;;1.73;;